sensor_id;sensor_type;location;lat;lon;timestamp;temperature;humidity
52973;DHT22;38837;48.916;2.336;2024-01-30T00:01:47;27.10;32.70
52973;DHT22;38837;48.916;2.336;2024-01-30T00:03:49;27.10;32.70
52973;DHT22;38837;48.916;2.336;2024-01-30T00:05:52;27.10;32.70
52973;DHT22;38837;48.916;2.336;2024-01-30T00:07:57;27.20;32.60
52973;DHT22;38837;48.916;2.336;2024-01-30T00:09:59;27.30;32.60
52973;DHT22;38837;48.916;2.336;2024-01-30T00:12:01;27.20;32.50
52973;DHT22;38837;48.916;2.336;2024-01-30T00:14:04;27.30;32.40
52973;DHT22;38837;48.916;2.336;2024-01-30T00:16:06;27.30;32.40
52973;DHT22;38837;48.916;2.336;2024-01-30T00:18:08;27.30;32.40
52973;DHT22;38837;48.916;2.336;2024-01-30T00:20:10;27.30;32.50
52973;DHT22;38837;48.916;2.336;2024-01-30T00:22:12;27.20;32.40
52973;DHT22;38837;48.916;2.336;2024-01-30T00:24:14;27.20;32.50
52973;DHT22;38837;48.916;2.336;2024-01-30T00:26:16;27.10;32.50
52973;DHT22;38837;48.916;2.336;2024-01-30T00:28:18;27.00;32.60
52973;DHT22;38837;48.916;2.336;2024-01-30T00:30:20;27.10;32.70
52973;DHT22;38837;48.916;2.336;2024-01-30T00:32:22;27.10;32.70
52973;DHT22;38837;48.916;2.336;2024-01-30T00:34:25;27.20;32.70
52973;DHT22;38837;48.916;2.336;2024-01-30T00:36:27;27.20;32.60
52973;DHT22;38837;48.916;2.336;2024-01-30T00:38:31;27.30;32.50
52973;DHT22;38837;48.916;2.336;2024-01-30T00:40:33;27.30;32.50
52973;DHT22;38837;48.916;2.336;2024-01-30T00:42:35;27.30;32.40
52973;DHT22;38837;48.916;2.336;2024-01-30T00:44:37;27.30;32.40
52973;DHT22;38837;48.916;2.336;2024-01-30T00:46:40;27.30;32.40
52973;DHT22;38837;48.916;2.336;2024-01-30T00:48:42;27.30;32.40
52973;DHT22;38837;48.916;2.336;2024-01-30T00:50:44;27.20;32.40
52973;DHT22;38837;48.916;2.336;2024-01-30T00:52:46;27.10;32.40
52973;DHT22;38837;48.916;2.336;2024-01-30T00:54:47;27.10;32.60
52973;DHT22;38837;48.916;2.336;2024-01-30T00:56:49;27.00;32.60
52973;DHT22;38837;48.916;2.336;2024-01-30T00:58:51;27.10;32.80
52973;DHT22;38837;48.916;2.336;2024-01-30T01:00:53;27.10;32.70
52973;DHT22;38837;48.916;2.336;2024-01-30T01:03:01;27.20;32.70
52973;DHT22;38837;48.916;2.336;2024-01-30T01:05:03;27.20;32.60
52973;DHT22;38837;48.916;2.336;2024-01-30T01:07:06;27.30;32.80
52973;DHT22;38837;48.916;2.336;2024-01-30T01:09:08;27.30;32.50
52973;DHT22;38837;48.916;2.336;2024-01-30T01:11:10;27.30;32.40
52973;DHT22;38837;48.916;2.336;2024-01-30T01:13:12;27.30;32.40
52973;DHT22;38837;48.916;2.336;2024-01-30T01:15:14;27.20;32.40
52973;DHT22;38837;48.916;2.336;2024-01-30T01:17:15;27.20;32.40
52973;DHT22;38837;48.916;2.336;2024-01-30T01:19:18;27.10;32.40
52973;DHT22;38837;48.916;2.336;2024-01-30T01:21:20;27.10;32.50
52973;DHT22;38837;48.916;2.336;2024-01-30T01:23:21;27.10;32.60
52973;DHT22;38837;48.916;2.336;2024-01-30T01:25:23;27.10;32.80
52973;DHT22;38837;48.916;2.336;2024-01-30T01:27:26;27.10;32.80
52973;DHT22;38837;48.916;2.336;2024-01-30T01:29:29;27.10;32.70
52973;DHT22;38837;48.916;2.336;2024-01-30T01:31:30;27.20;32.70
52973;DHT22;38837;48.916;2.336;2024-01-30T01:33:33;27.20;32.60
52973;DHT22;38837;48.916;2.336;2024-01-30T01:35:35;27.30;32.60
52973;DHT22;38837;48.916;2.336;2024-01-30T01:37:37;27.30;32.50
52973;DHT22;38837;48.916;2.336;2024-01-30T01:39:39;27.30;32.50
52973;DHT22;38837;48.916;2.336;2024-01-30T01:41:41;27.20;32.40
52973;DHT22;38837;48.916;2.336;2024-01-30T01:43:43;27.20;32.40
52973;DHT22;38837;48.916;2.336;2024-01-30T01:45:45;27.20;32.50
52973;DHT22;38837;48.916;2.336;2024-01-30T01:47:53;27.10;32.50
52973;DHT22;38837;48.916;2.336;2024-01-30T01:49:55;27.10;32.60
52973;DHT22;38837;48.916;2.336;2024-01-30T01:51:58;27.00;32.60
52973;DHT22;38837;48.916;2.336;2024-01-30T01:54:03;27.10;32.80
52973;DHT22;38837;48.916;2.336;2024-01-30T01:56:06;27.10;32.80
52973;DHT22;38837;48.916;2.336;2024-01-30T01:58:09;27.20;32.70
52973;DHT22;38837;48.916;2.336;2024-01-30T02:00:13;27.20;32.60
52973;DHT22;38837;48.916;2.336;2024-01-30T02:02:17;27.30;32.60
52973;DHT22;38837;48.916;2.336;2024-01-30T02:04:21;27.30;32.50
52973;DHT22;38837;48.916;2.336;2024-01-30T02:06:23;27.30;32.50
52973;DHT22;38837;48.916;2.336;2024-01-30T02:08:24;27.20;32.40
52973;DHT22;38837;48.916;2.336;2024-01-30T02:10:26;27.20;32.40
52973;DHT22;38837;48.916;2.336;2024-01-30T02:12:28;27.20;32.40
52973;DHT22;38837;48.916;2.336;2024-01-30T02:14:31;27.20;32.50
52973;DHT22;38837;48.916;2.336;2024-01-30T02:16:33;27.10;32.50
52973;DHT22;38837;48.916;2.336;2024-01-30T02:18:34;27.10;32.60
52973;DHT22;38837;48.916;2.336;2024-01-30T02:20:37;27.10;32.70
52973;DHT22;38837;48.916;2.336;2024-01-30T02:22:40;27.10;32.80
52973;DHT22;38837;48.916;2.336;2024-01-30T02:24:42;27.10;32.70
52973;DHT22;38837;48.916;2.336;2024-01-30T02:26:44;27.20;32.60
52973;DHT22;38837;48.916;2.336;2024-01-30T02:28:46;27.20;32.60
52973;DHT22;38837;48.916;2.336;2024-01-30T02:30:48;27.30;32.50
52973;DHT22;38837;48.916;2.336;2024-01-30T02:32:50;27.30;32.50
52973;DHT22;38837;48.916;2.336;2024-01-30T02:34:52;27.30;32.40
52973;DHT22;38837;48.916;2.336;2024-01-30T02:36:54;27.30;32.40
52973;DHT22;38837;48.916;2.336;2024-01-30T02:38:55;27.30;32.50
52973;DHT22;38837;48.916;2.336;2024-01-30T02:40:57;27.20;32.40
52973;DHT22;38837;48.916;2.336;2024-01-30T02:43:01;27.20;32.50
52973;DHT22;38837;48.916;2.336;2024-01-30T02:45:03;27.10;32.50
52973;DHT22;38837;48.916;2.336;2024-01-30T02:47:05;27.10;32.70
52973;DHT22;38837;48.916;2.336;2024-01-30T02:49:07;27.10;32.80
52973;DHT22;38837;48.916;2.336;2024-01-30T02:51:09;27.10;32.70
52973;DHT22;38837;48.916;2.336;2024-01-30T02:53:15;27.10;32.70
52973;DHT22;38837;48.916;2.336;2024-01-30T02:55:17;27.20;32.70
52973;DHT22;38837;48.916;2.336;2024-01-30T02:57:20;27.20;32.60
52973;DHT22;38837;48.916;2.336;2024-01-30T02:59:22;27.30;32.50
52973;DHT22;38837;48.916;2.336;2024-01-30T03:01:24;27.30;32.50
52973;DHT22;38837;48.916;2.336;2024-01-30T03:03:31;27.30;32.50
52973;DHT22;38837;48.916;2.336;2024-01-30T03:05:33;27.30;32.50
52973;DHT22;38837;48.916;2.336;2024-01-30T03:07:34;27.20;32.50
52973;DHT22;38837;48.916;2.336;2024-01-30T03:09:37;27.20;32.50
52973;DHT22;38837;48.916;2.336;2024-01-30T03:11:38;27.10;32.50
52973;DHT22;38837;48.916;2.336;2024-01-30T03:13:40;27.10;32.70
52973;DHT22;38837;48.916;2.336;2024-01-30T03:15:42;27.10;32.80
52973;DHT22;38837;48.916;2.336;2024-01-30T03:17:44;27.10;33.40
52973;DHT22;38837;48.916;2.336;2024-01-30T03:19:46;27.10;32.80
52973;DHT22;38837;48.916;2.336;2024-01-30T03:21:48;27.20;32.80
52973;DHT22;38837;48.916;2.336;2024-01-30T03:23:50;27.30;32.80
52973;DHT22;38837;48.916;2.336;2024-01-30T03:25:51;27.30;32.70
52973;DHT22;38837;48.916;2.336;2024-01-30T03:27:53;27.40;32.60
52973;DHT22;38837;48.916;2.336;2024-01-30T03:29:55;27.40;32.80
52973;DHT22;38837;48.916;2.336;2024-01-30T03:31:57;27.40;32.60
52973;DHT22;38837;48.916;2.336;2024-01-30T03:33:59;27.30;32.50
52973;DHT22;38837;48.916;2.336;2024-01-30T03:36:05;27.20;32.50
52973;DHT22;38837;48.916;2.336;2024-01-30T03:38:07;27.20;32.60
52973;DHT22;38837;48.916;2.336;2024-01-30T03:40:09;27.10;32.60
52973;DHT22;38837;48.916;2.336;2024-01-30T03:42:11;27.10;32.80
52973;DHT22;38837;48.916;2.336;2024-01-30T03:44:12;27.10;32.90
52973;DHT22;38837;48.916;2.336;2024-01-30T03:46:14;27.10;32.90
52973;DHT22;38837;48.916;2.336;2024-01-30T03:48:16;27.10;32.80
52973;DHT22;38837;48.916;2.336;2024-01-30T03:50:18;27.20;32.80
52973;DHT22;38837;48.916;2.336;2024-01-30T03:52:20;27.30;32.80
52973;DHT22;38837;48.916;2.336;2024-01-30T03:54:22;27.30;32.70
52973;DHT22;38837;48.916;2.336;2024-01-30T03:56:24;27.40;32.80
52973;DHT22;38837;48.916;2.336;2024-01-30T03:58:27;27.30;32.70
52973;DHT22;38837;48.916;2.336;2024-01-30T04:00:29;27.30;32.60
52973;DHT22;38837;48.916;2.336;2024-01-30T04:02:31;27.30;33.20
52973;DHT22;38837;48.916;2.336;2024-01-30T04:04:33;27.20;32.70
52973;DHT22;38837;48.916;2.336;2024-01-30T04:06:35;27.10;32.70
52973;DHT22;38837;48.916;2.336;2024-01-30T04:08:37;27.10;32.80
52973;DHT22;38837;48.916;2.336;2024-01-30T04:10:39;27.10;32.90
52973;DHT22;38837;48.916;2.336;2024-01-30T04:12:41;27.10;33.00
52973;DHT22;38837;48.916;2.336;2024-01-30T04:14:43;27.10;32.90
52973;DHT22;38837;48.916;2.336;2024-01-30T04:16:45;27.20;32.90
52973;DHT22;38837;48.916;2.336;2024-01-30T04:18:47;27.30;32.90
52973;DHT22;38837;48.916;2.336;2024-01-30T04:20:49;27.30;32.80
52973;DHT22;38837;48.916;2.336;2024-01-30T04:22:51;27.30;32.80
52973;DHT22;38837;48.916;2.336;2024-01-30T04:24:53;27.30;32.70
52973;DHT22;38837;48.916;2.336;2024-01-30T04:26:55;27.30;32.70
52973;DHT22;38837;48.916;2.336;2024-01-30T04:28:57;27.30;32.70
52973;DHT22;38837;48.916;2.336;2024-01-30T04:30:59;27.20;33.30
52973;DHT22;38837;48.916;2.336;2024-01-30T04:33:01;27.20;32.80
52973;DHT22;38837;48.916;2.336;2024-01-30T04:35:03;27.10;32.80
52973;DHT22;38837;48.916;2.336;2024-01-30T04:37:10;27.10;32.90
52973;DHT22;38837;48.916;2.336;2024-01-30T04:39:12;27.10;33.00
52973;DHT22;38837;48.916;2.336;2024-01-30T04:41:14;27.10;33.00
52973;DHT22;38837;48.916;2.336;2024-01-30T04:43:16;27.10;33.00
52973;DHT22;38837;48.916;2.336;2024-01-30T04:45:18;27.20;33.00
52973;DHT22;38837;48.916;2.336;2024-01-30T04:47:20;27.30;32.90
52973;DHT22;38837;48.916;2.336;2024-01-30T04:49:22;27.40;32.90
52973;DHT22;38837;48.916;2.336;2024-01-30T04:51:24;27.40;32.80
52973;DHT22;38837;48.916;2.336;2024-01-30T04:53:25;27.40;32.80
52973;DHT22;38837;48.916;2.336;2024-01-30T04:55:27;27.30;32.70
52973;DHT22;38837;48.916;2.336;2024-01-30T04:57:29;27.30;32.80
52973;DHT22;38837;48.916;2.336;2024-01-30T04:59:32;27.20;33.30
52973;DHT22;38837;48.916;2.336;2024-01-30T05:01:34;27.20;32.80
52973;DHT22;38837;48.916;2.336;2024-01-30T05:03:36;27.10;32.80
52973;DHT22;38837;48.916;2.336;2024-01-30T05:05:38;27.10;33.00
52973;DHT22;38837;48.916;2.336;2024-01-30T05:07:41;27.10;33.10
52973;DHT22;38837;48.916;2.336;2024-01-30T05:09:43;27.20;33.10
52973;DHT22;38837;48.916;2.336;2024-01-30T05:11:45;27.20;33.10
52973;DHT22;38837;48.916;2.336;2024-01-30T05:13:47;27.30;33.10
52973;DHT22;38837;48.916;2.336;2024-01-30T05:15:49;27.30;32.90
52973;DHT22;38837;48.916;2.336;2024-01-30T05:17:51;27.40;32.90
52973;DHT22;38837;48.916;2.336;2024-01-30T05:19:53;27.40;32.90
52973;DHT22;38837;48.916;2.336;2024-01-30T05:21:55;27.40;32.90
52973;DHT22;38837;48.916;2.336;2024-01-30T05:23:57;27.30;32.80
52973;DHT22;38837;48.916;2.336;2024-01-30T05:25:59;27.30;32.90
52973;DHT22;38837;48.916;2.336;2024-01-30T05:28:02;27.30;32.90
52973;DHT22;38837;48.916;2.336;2024-01-30T05:30:06;27.20;32.90
52973;DHT22;38837;48.916;2.336;2024-01-30T05:32:08;27.10;33.00
52973;DHT22;38837;48.916;2.336;2024-01-30T05:34:12;27.10;33.10
52973;DHT22;38837;48.916;2.336;2024-01-30T05:36:14;27.10;33.20
52973;DHT22;38837;48.916;2.336;2024-01-30T05:38:16;27.20;33.20
52973;DHT22;38837;48.916;2.336;2024-01-30T05:40:18;27.30;33.20
52973;DHT22;38837;48.916;2.336;2024-01-30T05:42:20;27.30;33.10
52973;DHT22;38837;48.916;2.336;2024-01-30T05:44:22;27.30;33.00
52973;DHT22;38837;48.916;2.336;2024-01-30T05:46:24;27.40;33.00
52973;DHT22;38837;48.916;2.336;2024-01-30T05:48:26;27.40;33.00
52973;DHT22;38837;48.916;2.336;2024-01-30T05:50:28;27.40;32.90
52973;DHT22;38837;48.916;2.336;2024-01-30T05:52:30;27.40;33.00
52973;DHT22;38837;48.916;2.336;2024-01-30T05:54:33;27.30;32.90
52973;DHT22;38837;48.916;2.336;2024-01-30T05:56:35;27.20;32.90
52973;DHT22;38837;48.916;2.336;2024-01-30T05:58:37;27.20;33.00
52973;DHT22;38837;48.916;2.336;2024-01-30T06:00:39;27.10;33.10
52973;DHT22;38837;48.916;2.336;2024-01-30T06:02:41;27.10;33.20
52973;DHT22;38837;48.916;2.336;2024-01-30T06:04:43;27.20;33.30
52973;DHT22;38837;48.916;2.336;2024-01-30T06:06:46;27.20;33.20
52973;DHT22;38837;48.916;2.336;2024-01-30T06:08:50;27.30;33.20
52973;DHT22;38837;48.916;2.336;2024-01-30T06:10:52;27.30;33.20
52973;DHT22;38837;48.916;2.336;2024-01-30T06:12:54;27.40;33.10
52973;DHT22;38837;48.916;2.336;2024-01-30T06:14:56;27.40;33.00
52973;DHT22;38837;48.916;2.336;2024-01-30T06:16:59;27.40;33.00
52973;DHT22;38837;48.916;2.336;2024-01-30T06:19:01;27.40;33.00
52973;DHT22;38837;48.916;2.336;2024-01-30T06:21:04;27.30;33.00
52973;DHT22;38837;48.916;2.336;2024-01-30T06:23:06;27.30;33.00
52973;DHT22;38837;48.916;2.336;2024-01-30T06:25:08;27.20;33.00
52973;DHT22;38837;48.916;2.336;2024-01-30T06:27:10;27.10;33.00
52973;DHT22;38837;48.916;2.336;2024-01-30T06:29:12;27.10;33.20
52973;DHT22;38837;48.916;2.336;2024-01-30T06:31:17;27.10;33.30
52973;DHT22;38837;48.916;2.336;2024-01-30T06:33:19;27.20;33.30
52973;DHT22;38837;48.916;2.336;2024-01-30T06:35:21;27.20;33.80
52973;DHT22;38837;48.916;2.336;2024-01-30T06:37:23;27.30;33.20
52973;DHT22;38837;48.916;2.336;2024-01-30T06:39:26;27.40;33.20
52973;DHT22;38837;48.916;2.336;2024-01-30T06:41:28;27.40;33.10
52973;DHT22;38837;48.916;2.336;2024-01-30T06:43:30;27.40;33.10
52973;DHT22;38837;48.916;2.336;2024-01-30T06:45:32;27.40;33.00
52973;DHT22;38837;48.916;2.336;2024-01-30T06:47:33;27.40;33.10
52973;DHT22;38837;48.916;2.336;2024-01-30T06:49:35;27.30;33.00
52973;DHT22;38837;48.916;2.336;2024-01-30T06:51:40;27.30;33.10
52973;DHT22;38837;48.916;2.336;2024-01-30T06:53:42;27.20;33.10
52973;DHT22;38837;48.916;2.336;2024-01-30T06:55:44;27.20;33.20
52973;DHT22;38837;48.916;2.336;2024-01-30T06:57:45;27.10;33.30
52973;DHT22;38837;48.916;2.336;2024-01-30T06:59:48;27.20;33.40
52973;DHT22;38837;48.916;2.336;2024-01-30T07:01:50;27.20;33.30
52973;DHT22;38837;48.916;2.336;2024-01-30T07:03:52;27.30;33.30
52973;DHT22;38837;48.916;2.336;2024-01-30T07:05:54;27.40;33.30
52973;DHT22;38837;48.916;2.336;2024-01-30T07:07:56;27.40;33.20
52973;DHT22;38837;48.916;2.336;2024-01-30T07:09:59;27.40;33.10
52973;DHT22;38837;48.916;2.336;2024-01-30T07:12:01;27.40;33.10
52973;DHT22;38837;48.916;2.336;2024-01-30T07:14:03;27.40;33.10
52973;DHT22;38837;48.916;2.336;2024-01-30T07:16:06;27.30;33.00
52973;DHT22;38837;48.916;2.336;2024-01-30T07:18:08;27.30;33.10
52973;DHT22;38837;48.916;2.336;2024-01-30T07:20:11;27.30;33.20
52973;DHT22;38837;48.916;2.336;2024-01-30T07:22:18;27.20;33.20
52973;DHT22;38837;48.916;2.336;2024-01-30T07:24:20;27.20;33.40
52973;DHT22;38837;48.916;2.336;2024-01-30T07:26:22;27.20;33.50
52973;DHT22;38837;48.916;2.336;2024-01-30T07:28:24;27.20;33.50
52973;DHT22;38837;48.916;2.336;2024-01-30T07:30:26;27.30;33.40
52973;DHT22;38837;48.916;2.336;2024-01-30T07:32:28;27.40;33.40
52973;DHT22;38837;48.916;2.336;2024-01-30T07:34:30;27.40;33.30
52973;DHT22;38837;48.916;2.336;2024-01-30T07:36:34;27.40;33.20
52973;DHT22;38837;48.916;2.336;2024-01-30T07:38:35;27.40;33.20
52973;DHT22;38837;48.916;2.336;2024-01-30T07:40:37;27.40;33.20
52973;DHT22;38837;48.916;2.336;2024-01-30T07:42:39;27.40;33.20
52973;DHT22;38837;48.916;2.336;2024-01-30T07:44:41;27.40;33.20
52973;DHT22;38837;48.916;2.336;2024-01-30T07:46:43;27.30;33.20
52973;DHT22;38837;48.916;2.336;2024-01-30T07:48:45;27.30;33.20
52973;DHT22;38837;48.916;2.336;2024-01-30T07:50:47;27.20;33.20
52973;DHT22;38837;48.916;2.336;2024-01-30T07:52:49;27.20;33.40
52973;DHT22;38837;48.916;2.336;2024-01-30T07:54:56;27.20;33.50
52973;DHT22;38837;48.916;2.336;2024-01-30T07:56:58;27.30;33.60
52973;DHT22;38837;48.916;2.336;2024-01-30T07:59:00;27.40;33.50
52973;DHT22;38837;48.916;2.336;2024-01-30T08:01:02;27.40;33.50
52973;DHT22;38837;48.916;2.336;2024-01-30T08:03:04;27.40;33.40
52973;DHT22;38837;48.916;2.336;2024-01-30T08:05:06;27.40;33.30
52973;DHT22;38837;48.916;2.336;2024-01-30T08:07:08;27.50;33.30
52973;DHT22;38837;48.916;2.336;2024-01-30T08:09:11;27.40;33.20
52973;DHT22;38837;48.916;2.336;2024-01-30T08:11:12;27.50;33.30
52973;DHT22;38837;48.916;2.336;2024-01-30T08:13:14;27.40;33.20
52973;DHT22;38837;48.916;2.336;2024-01-30T08:15:16;27.40;33.30
52973;DHT22;38837;48.916;2.336;2024-01-30T08:17:18;27.30;33.40
52973;DHT22;38837;48.916;2.336;2024-01-30T08:19:20;27.20;33.40
52973;DHT22;38837;48.916;2.336;2024-01-30T08:21:22;27.20;33.50
52973;DHT22;38837;48.916;2.336;2024-01-30T08:23:24;27.20;33.60
52973;DHT22;38837;48.916;2.336;2024-01-30T08:25:26;27.30;33.60
52973;DHT22;38837;48.916;2.336;2024-01-30T08:27:28;27.40;33.50
52973;DHT22;38837;48.916;2.336;2024-01-30T08:29:30;27.40;33.50
52973;DHT22;38837;48.916;2.336;2024-01-30T08:31:32;27.40;33.40
52973;DHT22;38837;48.916;2.336;2024-01-30T08:33:33;27.40;33.30
52973;DHT22;38837;48.916;2.336;2024-01-30T08:35:35;27.40;33.30
52973;DHT22;38837;48.916;2.336;2024-01-30T08:37:37;27.40;33.30
52973;DHT22;38837;48.916;2.336;2024-01-30T08:39:43;27.40;33.30
52973;DHT22;38837;48.916;2.336;2024-01-30T08:41:45;27.40;33.30
52973;DHT22;38837;48.916;2.336;2024-01-30T08:43:48;27.40;33.40
52973;DHT22;38837;48.916;2.336;2024-01-30T08:45:50;27.30;33.40
52973;DHT22;38837;48.916;2.336;2024-01-30T08:47:51;27.20;33.50
52973;DHT22;38837;48.916;2.336;2024-01-30T08:49:53;27.20;33.60
52973;DHT22;38837;48.916;2.336;2024-01-30T08:51:55;27.30;33.70
52973;DHT22;38837;48.916;2.336;2024-01-30T08:53:57;27.40;33.70
52973;DHT22;38837;48.916;2.336;2024-01-30T08:55:59;27.40;33.60
52973;DHT22;38837;48.916;2.336;2024-01-30T08:58:01;27.50;33.60
52973;DHT22;38837;48.916;2.336;2024-01-30T09:00:06;27.50;33.50
52973;DHT22;38837;48.916;2.336;2024-01-30T09:02:10;27.50;33.50
52973;DHT22;38837;48.916;2.336;2024-01-30T09:04:14;27.50;33.40
52973;DHT22;38837;48.916;2.336;2024-01-30T09:06:16;27.50;33.40
52973;DHT22;38837;48.916;2.336;2024-01-30T09:08:18;27.40;33.40
52973;DHT22;38837;48.916;2.336;2024-01-30T09:10:20;27.40;33.40
52973;DHT22;38837;48.916;2.336;2024-01-30T09:12:22;27.30;33.40
52973;DHT22;38837;48.916;2.336;2024-01-30T09:14:24;27.30;33.50
52973;DHT22;38837;48.916;2.336;2024-01-30T09:16:26;27.30;33.70
52973;DHT22;38837;48.916;2.336;2024-01-30T09:18:28;27.30;33.70
52973;DHT22;38837;48.916;2.336;2024-01-30T09:20:30;27.40;33.80
52973;DHT22;38837;48.916;2.336;2024-01-30T09:22:35;27.40;33.70
52973;DHT22;38837;48.916;2.336;2024-01-30T09:24:37;27.40;33.60
52973;DHT22;38837;48.916;2.336;2024-01-30T09:26:39;27.50;33.60
52973;DHT22;38837;48.916;2.336;2024-01-30T09:28:41;27.50;33.50
52973;DHT22;38837;48.916;2.336;2024-01-30T09:30:44;27.50;33.50
52973;DHT22;38837;48.916;2.336;2024-01-30T09:32:46;27.50;33.50
52973;DHT22;38837;48.916;2.336;2024-01-30T09:34:48;27.50;33.50
52973;DHT22;38837;48.916;2.336;2024-01-30T09:36:50;27.50;33.60
52973;DHT22;38837;48.916;2.336;2024-01-30T09:38:52;27.40;33.50
52973;DHT22;38837;48.916;2.336;2024-01-30T09:40:54;27.40;33.60
52973;DHT22;38837;48.916;2.336;2024-01-30T09:42:58;27.30;33.70
52973;DHT22;38837;48.916;2.336;2024-01-30T09:45:04;27.30;33.80
52973;DHT22;38837;48.916;2.336;2024-01-30T09:47:06;27.30;33.90
52973;DHT22;38837;48.916;2.336;2024-01-30T09:49:09;27.40;33.80
52973;DHT22;38837;48.916;2.336;2024-01-30T09:51:12;27.40;33.70
52973;DHT22;38837;48.916;2.336;2024-01-30T09:53:16;27.50;33.70
52973;DHT22;38837;48.916;2.336;2024-01-30T09:55:18;27.50;33.60
52973;DHT22;38837;48.916;2.336;2024-01-30T09:57:20;27.50;33.50
52973;DHT22;38837;48.916;2.336;2024-01-30T09:59:22;27.60;33.60
52973;DHT22;38837;48.916;2.336;2024-01-30T10:01:25;27.50;33.50
52973;DHT22;38837;48.916;2.336;2024-01-30T10:03:27;27.50;33.50
52973;DHT22;38837;48.916;2.336;2024-01-30T10:05:31;27.50;33.50
52973;DHT22;38837;48.916;2.336;2024-01-30T10:07:35;27.40;33.50
52973;DHT22;38837;48.916;2.336;2024-01-30T10:09:37;27.40;33.60
52973;DHT22;38837;48.916;2.336;2024-01-30T10:11:39;27.30;33.70
52973;DHT22;38837;48.916;2.336;2024-01-30T10:13:42;27.30;33.80
52973;DHT22;38837;48.916;2.336;2024-01-30T10:15:44;27.40;33.90
52973;DHT22;38837;48.916;2.336;2024-01-30T10:17:47;27.40;33.80
52973;DHT22;38837;48.916;2.336;2024-01-30T10:19:49;27.50;33.70
52973;DHT22;38837;48.916;2.336;2024-01-30T10:21:51;27.50;33.70
52973;DHT22;38837;48.916;2.336;2024-01-30T10:23:53;27.50;33.60
52973;DHT22;38837;48.916;2.336;2024-01-30T10:25:55;27.50;33.50
52973;DHT22;38837;48.916;2.336;2024-01-30T10:27:58;27.60;33.60
52973;DHT22;38837;48.916;2.336;2024-01-30T10:30:00;27.50;33.50
52973;DHT22;38837;48.916;2.336;2024-01-30T10:32:05;27.50;33.50
52973;DHT22;38837;48.916;2.336;2024-01-30T10:34:07;27.50;33.50
52973;DHT22;38837;48.916;2.336;2024-01-30T10:36:28;27.40;33.50
52973;DHT22;38837;48.916;2.336;2024-01-30T10:38:32;27.40;33.70
52973;DHT22;38837;48.916;2.336;2024-01-30T10:40:35;27.40;33.70
52973;DHT22;38837;48.916;2.336;2024-01-30T10:42:42;27.40;33.80
52973;DHT22;38837;48.916;2.336;2024-01-30T10:44:55;27.50;33.80
52973;DHT22;38837;48.916;2.336;2024-01-30T10:47:03;27.60;33.80
52973;DHT22;38837;48.916;2.336;2024-01-30T10:49:09;27.60;33.60
52973;DHT22;38837;48.916;2.336;2024-01-30T10:51:13;27.60;33.60
52973;DHT22;38837;48.916;2.336;2024-01-30T10:53:17;27.70;33.60
52973;DHT22;38837;48.916;2.336;2024-01-30T10:55:20;27.70;33.50
52973;DHT22;38837;48.916;2.336;2024-01-30T10:57:24;27.70;33.50
52973;DHT22;38837;48.916;2.336;2024-01-30T10:59:29;27.60;33.50
52973;DHT22;38837;48.916;2.336;2024-01-30T11:01:32;27.60;33.50
52973;DHT22;38837;48.916;2.336;2024-01-30T11:03:34;27.50;33.50
52973;DHT22;38837;48.916;2.336;2024-01-30T11:05:40;27.50;33.60
52973;DHT22;38837;48.916;2.336;2024-01-30T11:07:43;27.40;33.60
52973;DHT22;38837;48.916;2.336;2024-01-30T11:09:59;27.50;33.70
52973;DHT22;38837;48.916;2.336;2024-01-30T11:12:05;27.50;33.70
52973;DHT22;38837;48.916;2.336;2024-01-30T11:14:09;27.60;33.70
52973;DHT22;38837;48.916;2.336;2024-01-30T11:16:11;27.60;33.60
52973;DHT22;38837;48.916;2.336;2024-01-30T11:18:23;27.70;33.60
52973;DHT22;38837;48.916;2.336;2024-01-30T11:20:27;27.70;33.50
52973;DHT22;38837;48.916;2.336;2024-01-30T11:22:33;27.70;33.50
52973;DHT22;38837;48.916;2.336;2024-01-30T11:24:40;27.70;33.50
52973;DHT22;38837;48.916;2.336;2024-01-30T11:26:45;27.60;33.40
52973;DHT22;38837;48.916;2.336;2024-01-30T11:28:52;27.60;33.40
52973;DHT22;38837;48.916;2.336;2024-01-30T11:31:03;27.60;33.50
52973;DHT22;38837;48.916;2.336;2024-01-30T11:33:12;27.50;33.50
52973;DHT22;38837;48.916;2.336;2024-01-30T11:35:15;27.40;33.60
52973;DHT22;38837;48.916;2.336;2024-01-30T11:37:20;27.40;33.70
52973;DHT22;38837;48.916;2.336;2024-01-30T11:39:24;27.50;33.70
52973;DHT22;38837;48.916;2.336;2024-01-30T11:41:28;27.50;33.70
52973;DHT22;38837;48.916;2.336;2024-01-30T11:43:30;27.50;33.60
52973;DHT22;38837;48.916;2.336;2024-01-30T11:45:32;27.60;33.50
52973;DHT22;38837;48.916;2.336;2024-01-30T11:47:37;27.60;33.50
52973;DHT22;38837;48.916;2.336;2024-01-30T11:49:45;27.60;33.50
52973;DHT22;38837;48.916;2.336;2024-01-30T11:51:47;27.60;33.40
52973;DHT22;38837;48.916;2.336;2024-01-30T11:53:50;27.60;34.00
52973;DHT22;38837;48.916;2.336;2024-01-30T11:55:52;27.60;33.40
52973;DHT22;38837;48.916;2.336;2024-01-30T11:57:57;27.60;33.40
52973;DHT22;38837;48.916;2.336;2024-01-30T12:00:00;27.50;33.40
52973;DHT22;38837;48.916;2.336;2024-01-30T12:02:02;27.50;33.50
52973;DHT22;38837;48.916;2.336;2024-01-30T12:04:05;27.40;33.50
52973;DHT22;38837;48.916;2.336;2024-01-30T12:06:11;27.40;33.50
52973;DHT22;38837;48.916;2.336;2024-01-30T12:08:17;27.50;33.60
52973;DHT22;38837;48.916;2.336;2024-01-30T12:10:19;27.40;33.90
52973;DHT22;38837;48.916;2.336;2024-01-30T12:12:28;27.50;33.80
52973;DHT22;38837;48.916;2.336;2024-01-30T12:14:30;27.40;34.20
52973;DHT22;38837;48.916;2.336;2024-01-30T12:16:32;27.60;34.20
52973;DHT22;38837;48.916;2.336;2024-01-30T12:18:34;27.80;34.30
52973;DHT22;38837;48.916;2.336;2024-01-30T12:20:36;27.70;33.50
52973;DHT22;38837;48.916;2.336;2024-01-30T12:22:40;27.70;33.50
52973;DHT22;38837;48.916;2.336;2024-01-30T12:24:42;27.60;33.70
52973;DHT22;38837;48.916;2.336;2024-01-30T12:26:44;27.60;33.30
52973;DHT22;38837;48.916;2.336;2024-01-30T12:28:50;27.40;34.10
52973;DHT22;38837;48.916;2.336;2024-01-30T12:31:04;27.10;34.40
52973;DHT22;38837;48.916;2.336;2024-01-30T12:33:06;27.00;34.50
52973;DHT22;38837;48.916;2.336;2024-01-30T12:35:14;27.10;34.00
52973;DHT22;38837;48.916;2.336;2024-01-30T12:37:16;27.30;33.80
52973;DHT22;38837;48.916;2.336;2024-01-30T12:39:26;27.30;33.90
52973;DHT22;38837;48.916;2.336;2024-01-30T12:41:28;27.40;33.60
52973;DHT22;38837;48.916;2.336;2024-01-30T12:43:31;27.40;33.60
52973;DHT22;38837;48.916;2.336;2024-01-30T12:45:41;27.40;33.80
52973;DHT22;38837;48.916;2.336;2024-01-30T12:47:43;27.40;33.50
52973;DHT22;38837;48.916;2.336;2024-01-30T12:49:45;27.40;33.40
52973;DHT22;38837;48.916;2.336;2024-01-30T12:51:47;27.30;33.40
52973;DHT22;38837;48.916;2.336;2024-01-30T12:53:49;27.10;33.90
52973;DHT22;38837;48.916;2.336;2024-01-30T12:55:51;26.80;34.00